sensor_id;sensor_type;location;lat;lon;timestamp;pressure;altitude;pressure_sealevel;temperature;humidity
81299;BME280;70766;53.170;18.160;2024-01-30T00:00:30;102742.83;;;-2.32;100.00
81299;BME280;70766;53.170;18.160;2024-01-30T00:03:18;102748.23;;;-2.23;100.00
81299;BME280;70766;53.170;18.160;2024-01-30T00:05:47;102748.77;;;-2.23;100.00
81299;BME280;70766;53.170;18.160;2024-01-30T00:08:15;102742.21;;;-2.25;100.00
81299;BME280;70766;53.170;18.160;2024-01-30T00:10:43;102743.71;;;-2.21;100.00
81299;BME280;70766;53.170;18.160;2024-01-30T00:13:11;102739.27;;;-2.17;100.00
81299;BME280;70766;53.170;18.160;2024-01-30T00:15:39;102737.48;;;-2.20;100.00
81299;BME280;70766;53.170;18.160;2024-01-30T00:18:07;102739.19;;;-2.21;100.00
81299;BME280;70766;53.170;18.160;2024-01-30T00:20:36;102737.85;;;-2.22;100.00
81299;BME280;70766;53.170;18.160;2024-01-30T00:23:04;102737.19;;;-2.23;100.00
81299;BME280;70766;53.170;18.160;2024-01-30T00:25:32;102736.12;;;-2.25;100.00
81299;BME280;70766;53.170;18.160;2024-01-30T00:28:01;102736.33;;;-2.26;100.00
81299;BME280;70766;53.170;18.160;2024-01-30T00:30:29;102736.74;;;-2.24;100.00
81299;BME280;70766;53.170;18.160;2024-01-30T00:32:57;102737.00;;;-2.23;100.00
81299;BME280;70766;53.170;18.160;2024-01-30T00:35:25;102733.56;;;-2.21;100.00
81299;BME280;70766;53.170;18.160;2024-01-30T00:37:54;102733.95;;;-2.19;100.00
81299;BME280;70766;53.170;18.160;2024-01-30T00:40:22;102732.95;;;-2.20;100.00
81299;BME280;70766;53.170;18.160;2024-01-30T00:42:51;102725.34;;;-2.21;100.00
81299;BME280;70766;53.170;18.160;2024-01-30T00:45:19;102726.23;;;-2.16;100.00
81299;BME280;70766;53.170;18.160;2024-01-30T00:47:47;102725.39;;;-2.11;100.00
81299;BME280;70766;53.170;18.160;2024-01-30T00:50:15;102721.92;;;-2.09;100.00
81299;BME280;70766;53.170;18.160;2024-01-30T00:52:43;102718.80;;;-2.09;100.00
81299;BME280;70766;53.170;18.160;2024-01-30T00:55:13;102714.24;;;-2.09;100.00
81299;BME280;70766;53.170;18.160;2024-01-30T00:57:42;102716.24;;;-2.08;100.00
81299;BME280;70766;53.170;18.160;2024-01-30T01:00:13;102721.14;;;-2.08;100.00
81299;BME280;70766;53.170;18.160;2024-01-30T01:02:45;102724.23;;;-2.10;100.00
81299;BME280;70766;53.170;18.160;2024-01-30T01:05:13;102724.55;;;-2.12;100.00
81299;BME280;70766;53.170;18.160;2024-01-30T01:07:42;102724.06;;;-2.15;100.00
81299;BME280;70766;53.170;18.160;2024-01-30T01:10:10;102723.34;;;-2.15;100.00
81299;BME280;70766;53.170;18.160;2024-01-30T01:12:39;102722.73;;;-2.13;100.00
81299;BME280;70766;53.170;18.160;2024-01-30T01:15:08;102718.05;;;-2.14;100.00
81299;BME280;70766;53.170;18.160;2024-01-30T01:17:38;102716.92;;;-2.16;100.00
81299;BME280;70766;53.170;18.160;2024-01-30T01:20:07;102720.23;;;-2.18;100.00
81299;BME280;70766;53.170;18.160;2024-01-30T01:22:37;102714.07;;;-2.21;100.00
81299;BME280;70766;53.170;18.160;2024-01-30T01:25:06;102713.96;;;-2.22;100.00
81299;BME280;70766;53.170;18.160;2024-01-30T01:27:36;102715.05;;;-2.19;100.00
81299;BME280;70766;53.170;18.160;2024-01-30T01:30:09;102713.23;;;-2.16;100.00
81299;BME280;70766;53.170;18.160;2024-01-30T01:32:38;102714.67;;;-2.14;100.00
81299;BME280;70766;53.170;18.160;2024-01-30T01:35:06;102710.22;;;-2.07;100.00
81299;BME280;70766;53.170;18.160;2024-01-30T01:37:35;102705.19;;;-2.02;100.00
81299;BME280;70766;53.170;18.160;2024-01-30T01:40:03;102710.02;;;-2.04;100.00
81299;BME280;70766;53.170;18.160;2024-01-30T01:42:31;102710.09;;;-2.05;100.00
81299;BME280;70766;53.170;18.160;2024-01-30T01:44:59;102713.58;;;-2.05;100.00
81299;BME280;70766;53.170;18.160;2024-01-30T01:47:27;102711.19;;;-2.06;100.00
81299;BME280;70766;53.170;18.160;2024-01-30T01:49:55;102714.88;;;-2.09;100.00
81299;BME280;70766;53.170;18.160;2024-01-30T01:52:24;102715.45;;;-2.15;100.00
81299;BME280;70766;53.170;18.160;2024-01-30T01:54:52;102714.72;;;-2.20;100.00
81299;BME280;70766;53.170;18.160;2024-01-30T01:57:20;102713.05;;;-2.21;100.00
81299;BME280;70766;53.170;18.160;2024-01-30T01:59:48;102714.92;;;-2.26;100.00
81299;BME280;70766;53.170;18.160;2024-01-30T02:02:17;102710.27;;;-2.30;100.00
81299;BME280;70766;53.170;18.160;2024-01-30T02:04:47;102709.09;;;-2.33;100.00
81299;BME280;70766;53.170;18.160;2024-01-30T02:07:15;102709.58;;;-2.35;100.00
81299;BME280;70766;53.170;18.160;2024-01-30T02:09:43;102710.45;;;-2.36;100.00
81299;BME280;70766;53.170;18.160;2024-01-30T02:12:11;102710.84;;;-2.33;100.00
81299;BME280;70766;53.170;18.160;2024-01-30T02:14:47;102710.85;;;-2.33;100.00
81299;BME280;70766;53.170;18.160;2024-01-30T02:17:16;102710.30;;;-2.36;100.00
81299;BME280;70766;53.170;18.160;2024-01-30T02:19:44;102707.27;;;-2.41;100.00
81299;BME280;70766;53.170;18.160;2024-01-30T02:22:12;102707.09;;;-2.46;100.00
81299;BME280;70766;53.170;18.160;2024-01-30T02:24:41;102706.38;;;-2.52;100.00
81299;BME280;70766;53.170;18.160;2024-01-30T02:27:09;102707.58;;;-2.57;100.00
81299;BME280;70766;53.170;18.160;2024-01-30T02:29:37;102706.25;;;-2.61;100.00
81299;BME280;70766;53.170;18.160;2024-01-30T02:32:05;102704.77;;;-2.62;100.00
81299;BME280;70766;53.170;18.160;2024-01-30T02:34:34;102708.26;;;-2.65;100.00
81299;BME280;70766;53.170;18.160;2024-01-30T02:37:02;102709.33;;;-2.68;100.00
81299;BME280;70766;53.170;18.160;2024-01-30T02:39:30;102706.45;;;-2.70;100.00
81299;BME280;70766;53.170;18.160;2024-01-30T02:41:58;102704.31;;;-2.72;100.00
81299;BME280;70766;53.170;18.160;2024-01-30T02:44:26;102698.45;;;-2.74;100.00
81299;BME280;70766;53.170;18.160;2024-01-30T02:46:54;102700.30;;;-2.75;100.00
81299;BME280;70766;53.170;18.160;2024-01-30T02:49:22;102702.33;;;-2.74;100.00
81299;BME280;70766;53.170;18.160;2024-01-30T02:51:53;102703.41;;;-2.72;100.00
81299;BME280;70766;53.170;18.160;2024-01-30T02:54:21;102699.29;;;-2.73;100.00
81299;BME280;70766;53.170;18.160;2024-01-30T02:56:49;102700.45;;;-2.72;100.00
81299;BME280;70766;53.170;18.160;2024-01-30T02:59:17;102698.36;;;-2.72;100.00
81299;BME280;70766;53.170;18.160;2024-01-30T03:01:45;102699.38;;;-2.71;100.00
81299;BME280;70766;53.170;18.160;2024-01-30T03:04:14;102697.13;;;-2.72;100.00
81299;BME280;70766;53.170;18.160;2024-01-30T03:06:46;102694.05;;;-2.73;100.00
81299;BME280;70766;53.170;18.160;2024-01-30T03:09:17;102693.19;;;-2.73;100.00
81299;BME280;70766;53.170;18.160;2024-01-30T03:11:46;102695.90;;;-2.72;100.00
81299;BME280;70766;53.170;18.160;2024-01-30T03:14:14;102691.10;;;-2.71;100.00
81299;BME280;70766;53.170;18.160;2024-01-30T03:16:42;102692.77;;;-2.70;100.00
81299;BME280;70766;53.170;18.160;2024-01-30T03:19:10;102698.34;;;-2.69;100.00
81299;BME280;70766;53.170;18.160;2024-01-30T03:21:38;102699.45;;;-2.67;100.00
81299;BME280;70766;53.170;18.160;2024-01-30T03:24:06;102700.48;;;-2.64;100.00
81299;BME280;70766;53.170;18.160;2024-01-30T03:26:34;102700.02;;;-2.59;100.00
81299;BME280;70766;53.170;18.160;2024-01-30T03:29:02;102698.09;;;-2.54;100.00
81299;BME280;70766;53.170;18.160;2024-01-30T03:31:31;102702.95;;;-2.50;100.00
81299;BME280;70766;53.170;18.160;2024-01-30T03:33:59;102698.50;;;-2.43;100.00
81299;BME280;70766;53.170;18.160;2024-01-30T03:36:27;102698.58;;;-2.33;100.00
81299;BME280;70766;53.170;18.160;2024-01-30T03:38:56;102696.54;;;-2.24;100.00
81299;BME280;70766;53.170;18.160;2024-01-30T03:41:24;102692.32;;;-2.15;100.00
81299;BME280;70766;53.170;18.160;2024-01-30T03:43:52;102692.13;;;-2.09;100.00
81299;BME280;70766;53.170;18.160;2024-01-30T03:46:20;102687.55;;;-2.04;100.00
81299;BME280;70766;53.170;18.160;2024-01-30T03:48:48;102685.83;;;-1.99;100.00
81299;BME280;70766;53.170;18.160;2024-01-30T03:51:17;102687.59;;;-1.96;100.00
81299;BME280;70766;53.170;18.160;2024-01-30T03:53:45;102692.41;;;-1.92;100.00
81299;BME280;70766;53.170;18.160;2024-01-30T03:56:16;102690.67;;;-1.92;100.00
81299;BME280;70766;53.170;18.160;2024-01-30T03:58:44;102692.88;;;-1.94;100.00
81299;BME280;70766;53.170;18.160;2024-01-30T04:01:13;102690.63;;;-1.97;100.00
81299;BME280;70766;53.170;18.160;2024-01-30T04:03:42;102693.68;;;-1.98;100.00
81299;BME280;70766;53.170;18.160;2024-01-30T04:06:12;102690.92;;;-1.99;100.00
81299;BME280;70766;53.170;18.160;2024-01-30T04:08:40;102690.27;;;-2.00;100.00
81299;BME280;70766;53.170;18.160;2024-01-30T04:11:08;102694.02;;;-2.00;100.00
81299;BME280;70766;53.170;18.160;2024-01-30T04:13:36;102691.12;;;-2.02;100.00
81299;BME280;70766;53.170;18.160;2024-01-30T04:16:05;102690.96;;;-2.05;100.00
81299;BME280;70766;53.170;18.160;2024-01-30T04:18:33;102690.75;;;-2.07;100.00
81299;BME280;70766;53.170;18.160;2024-01-30T04:21:02;102689.22;;;-2.08;100.00
81299;BME280;70766;53.170;18.160;2024-01-30T04:23:30;102691.57;;;-2.09;100.00
81299;BME280;70766;53.170;18.160;2024-01-30T04:25:58;102691.88;;;-2.11;100.00
81299;BME280;70766;53.170;18.160;2024-01-30T04:28:26;102690.21;;;-2.12;100.00
81299;BME280;70766;53.170;18.160;2024-01-30T04:30:54;102686.62;;;-2.14;100.00
81299;BME280;70766;53.170;18.160;2024-01-30T04:33:23;102682.48;;;-2.15;100.00
81299;BME280;70766;53.170;18.160;2024-01-30T04:35:51;102682.07;;;-2.14;100.00
81299;BME280;70766;53.170;18.160;2024-01-30T04:38:19;102684.61;;;-2.13;100.00
81299;BME280;70766;53.170;18.160;2024-01-30T04:40:48;102679.50;;;-2.09;100.00
81299;BME280;70766;53.170;18.160;2024-01-30T04:43:16;102686.42;;;-2.05;100.00
81299;BME280;70766;53.170;18.160;2024-01-30T04:45:44;102688.04;;;-2.03;100.00
81299;BME280;70766;53.170;18.160;2024-01-30T04:48:12;102687.29;;;-2.02;100.00
81299;BME280;70766;53.170;18.160;2024-01-30T04:50:40;102688.94;;;-2.03;100.00
81299;BME280;70766;53.170;18.160;2024-01-30T04:53:09;102693.47;;;-2.03;100.00
81299;BME280;70766;53.170;18.160;2024-01-30T04:55:37;102694.41;;;-2.04;100.00
81299;BME280;70766;53.170;18.160;2024-01-30T04:58:05;102697.66;;;-2.03;100.00
81299;BME280;70766;53.170;18.160;2024-01-30T05:00:33;102696.04;;;-2.02;100.00
81299;BME280;70766;53.170;18.160;2024-01-30T05:03:01;102694.67;;;-2.00;100.00
81299;BME280;70766;53.170;18.160;2024-01-30T05:05:29;102696.58;;;-1.97;100.00
81299;BME280;70766;53.170;18.160;2024-01-30T05:07:57;102693.36;;;-1.93;100.00
81299;BME280;70766;53.170;18.160;2024-01-30T05:10:25;102686.23;;;-1.89;100.00
81299;BME280;70766;53.170;18.160;2024-01-30T05:12:54;102686.27;;;-1.84;100.00
81299;BME280;70766;53.170;18.160;2024-01-30T05:15:22;102680.70;;;-1.82;100.00
81299;BME280;70766;53.170;18.160;2024-01-30T05:17:50;102683.52;;;-1.79;100.00
81299;BME280;70766;53.170;18.160;2024-01-30T05:20:19;102677.05;;;-1.80;100.00
81299;BME280;70766;53.170;18.160;2024-01-30T05:22:48;102676.16;;;-1.79;100.00
81299;BME280;70766;53.170;18.160;2024-01-30T05:25:16;102676.13;;;-1.79;100.00
81299;BME280;70766;53.170;18.160;2024-01-30T05:27:45;102677.38;;;-1.79;100.00
81299;BME280;70766;53.170;18.160;2024-01-30T05:30:13;102679.86;;;-1.80;100.00
81299;BME280;70766;53.170;18.160;2024-01-30T05:32:43;102684.09;;;-1.80;100.00
81299;BME280;70766;53.170;18.160;2024-01-30T05:35:11;102682.39;;;-1.81;100.00
81299;BME280;70766;53.170;18.160;2024-01-30T05:37:39;102683.56;;;-1.80;100.00
81299;BME280;70766;53.170;18.160;2024-01-30T05:40:08;102688.40;;;-1.79;100.00
81299;BME280;70766;53.170;18.160;2024-01-30T05:42:37;102685.91;;;-1.79;100.00
81299;BME280;70766;53.170;18.160;2024-01-30T05:45:05;102684.84;;;-1.75;100.00
81299;BME280;70766;53.170;18.160;2024-01-30T05:47:35;102690.55;;;-1.74;100.00
81299;BME280;70766;53.170;18.160;2024-01-30T05:50:06;102692.04;;;-1.75;100.00
81299;BME280;70766;53.170;18.160;2024-01-30T05:52:34;102693.76;;;-1.77;100.00
81299;BME280;70766;53.170;18.160;2024-01-30T05:55:07;102692.86;;;-1.80;100.00
81299;BME280;70766;53.170;18.160;2024-01-30T05:57:35;102693.06;;;-1.80;100.00
81299;BME280;70766;53.170;18.160;2024-01-30T06:00:05;102694.58;;;-1.79;100.00
81299;BME280;70766;53.170;18.160;2024-01-30T06:02:33;102695.67;;;-1.80;100.00
81299;BME280;70766;53.170;18.160;2024-01-30T06:05:02;102695.04;;;-1.81;100.00
81299;BME280;70766;53.170;18.160;2024-01-30T06:07:31;102694.55;;;-1.82;100.00
81299;BME280;70766;53.170;18.160;2024-01-30T06:10:04;102689.85;;;-1.82;100.00
81299;BME280;70766;53.170;18.160;2024-01-30T06:12:35;102686.59;;;-1.83;100.00
81299;BME280;70766;53.170;18.160;2024-01-30T06:15:04;102692.04;;;-1.83;100.00
81299;BME280;70766;53.170;18.160;2024-01-30T06:17:33;102690.97;;;-1.83;100.00
81299;BME280;70766;53.170;18.160;2024-01-30T06:20:01;102700.86;;;-1.82;100.00
81299;BME280;70766;53.170;18.160;2024-01-30T06:22:29;102702.08;;;-1.81;100.00
81299;BME280;70766;53.170;18.160;2024-01-30T06:24:58;102701.44;;;-1.82;100.00
81299;BME280;70766;53.170;18.160;2024-01-30T06:27:26;102705.95;;;-1.82;100.00
81299;BME280;70766;53.170;18.160;2024-01-30T06:29:54;102705.39;;;-1.81;100.00
81299;BME280;70766;53.170;18.160;2024-01-30T06:32:22;102702.45;;;-1.82;100.00
81299;BME280;70766;53.170;18.160;2024-01-30T06:34:52;102700.55;;;-1.80;100.00
81299;BME280;70766;53.170;18.160;2024-01-30T06:37:21;102702.89;;;-1.75;100.00
81299;BME280;70766;53.170;18.160;2024-01-30T06:39:53;102700.21;;;-1.72;100.00
81299;BME280;70766;53.170;18.160;2024-01-30T06:42:21;102699.10;;;-1.68;100.00
81299;BME280;70766;53.170;18.160;2024-01-30T06:44:49;102698.58;;;-1.65;100.00
81299;BME280;70766;53.170;18.160;2024-01-30T06:47:17;102697.24;;;-1.59;100.00
81299;BME280;70766;53.170;18.160;2024-01-30T06:49:46;102695.41;;;-1.52;100.00
81299;BME280;70766;53.170;18.160;2024-01-30T06:52:14;102699.96;;;-1.47;100.00
81299;BME280;70766;53.170;18.160;2024-01-30T06:54:42;102700.85;;;-1.44;100.00
81299;BME280;70766;53.170;18.160;2024-01-30T06:57:11;102701.66;;;-1.40;100.00
81299;BME280;70766;53.170;18.160;2024-01-30T06:59:40;102700.36;;;-1.37;100.00
81299;BME280;70766;53.170;18.160;2024-01-30T07:02:12;102703.16;;;-1.31;100.00
81299;BME280;70766;53.170;18.160;2024-01-30T07:04:40;102706.38;;;-1.27;100.00
81299;BME280;70766;53.170;18.160;2024-01-30T07:07:15;102701.80;;;-1.21;100.00
81299;BME280;70766;53.170;18.160;2024-01-30T07:09:44;102700.02;;;-1.16;100.00
81299;BME280;70766;53.170;18.160;2024-01-30T07:12:12;102703.33;;;-1.10;100.00
81299;BME280;70766;53.170;18.160;2024-01-30T07:14:42;102703.84;;;-1.05;100.00
81299;BME280;70766;53.170;18.160;2024-01-30T07:17:10;102707.96;;;-0.99;100.00
81299;BME280;70766;53.170;18.160;2024-01-30T07:19:38;102707.42;;;-0.91;100.00
81299;BME280;70766;53.170;18.160;2024-01-30T07:22:07;102706.53;;;-0.83;100.00
81299;BME280;70766;53.170;18.160;2024-01-30T07:24:36;102703.41;;;-0.76;100.00
81299;BME280;70766;53.170;18.160;2024-01-30T07:27:04;102704.86;;;-0.69;100.00
81299;BME280;70766;53.170;18.160;2024-01-30T07:29:32;102704.98;;;-0.61;100.00
81299;BME280;70766;53.170;18.160;2024-01-30T07:32:00;102704.94;;;-0.50;100.00
81299;BME280;70766;53.170;18.160;2024-01-30T07:34:28;102708.62;;;-0.40;100.00
81299;BME280;70766;53.170;18.160;2024-01-30T07:36:58;102707.36;;;-0.32;100.00
81299;BME280;70766;53.170;18.160;2024-01-30T07:39:27;102703.13;;;-0.25;100.00
81299;BME280;70766;53.170;18.160;2024-01-30T07:41:56;102700.21;;;-0.19;100.00
81299;BME280;70766;53.170;18.160;2024-01-30T07:44:24;102700.80;;;-0.12;100.00
81299;BME280;70766;53.170;18.160;2024-01-30T07:46:52;102700.89;;;-0.06;100.00
81299;BME280;70766;53.170;18.160;2024-01-30T07:49:21;102701.14;;;0.00;100.00
81299;BME280;70766;53.170;18.160;2024-01-30T07:51:49;102703.89;;;0.07;100.00
81299;BME280;70766;53.170;18.160;2024-01-30T07:54:17;102705.90;;;0.13;100.00
81299;BME280;70766;53.170;18.160;2024-01-30T07:56:45;102705.47;;;0.21;100.00
81299;BME280;70766;53.170;18.160;2024-01-30T07:59:14;102705.10;;;0.29;100.00
81299;BME280;70766;53.170;18.160;2024-01-30T08:01:42;102701.95;;;0.35;100.00
81299;BME280;70766;53.170;18.160;2024-01-30T08:04:11;102705.91;;;0.41;100.00
81299;BME280;70766;53.170;18.160;2024-01-30T08:06:39;102703.60;;;0.49;100.00
81299;BME280;70766;53.170;18.160;2024-01-30T08:09:11;102708.41;;;0.57;100.00
81299;BME280;70766;53.170;18.160;2024-01-30T08:11:39;102708.37;;;0.67;100.00
81299;BME280;70766;53.170;18.160;2024-01-30T08:14:07;102707.15;;;0.74;100.00
81299;BME280;70766;53.170;18.160;2024-01-30T08:16:39;102710.64;;;0.81;100.00
81299;BME280;70766;53.170;18.160;2024-01-30T08:19:07;102708.59;;;0.85;100.00
81299;BME280;70766;53.170;18.160;2024-01-30T08:21:35;102709.73;;;0.91;100.00
81299;BME280;70766;53.170;18.160;2024-01-30T08:24:07;102711.11;;;1.00;100.00
81299;BME280;70766;53.170;18.160;2024-01-30T08:26:35;102710.61;;;1.12;100.00
81299;BME280;70766;53.170;18.160;2024-01-30T08:29:04;102710.69;;;1.22;100.00
81299;BME280;70766;53.170;18.160;2024-01-30T08:31:32;102704.41;;;1.35;100.00
81299;BME280;70766;53.170;18.160;2024-01-30T08:34:00;102704.23;;;1.48;100.00
81299;BME280;70766;53.170;18.160;2024-01-30T08:36:29;102700.92;;;1.63;100.00
81299;BME280;70766;53.170;18.160;2024-01-30T08:38:57;102698.45;;;1.74;100.00
81299;BME280;70766;53.170;18.160;2024-01-30T08:41:30;102691.50;;;1.86;100.00
81299;BME280;70766;53.170;18.160;2024-01-30T08:43:59;102694.30;;;1.95;100.00
81299;BME280;70766;53.170;18.160;2024-01-30T08:46:27;102693.42;;;2.06;100.00
81299;BME280;70766;53.170;18.160;2024-01-30T08:48:56;102698.67;;;2.19;100.00
81299;BME280;70766;53.170;18.160;2024-01-30T08:51:24;102696.13;;;2.35;100.00
81299;BME280;70766;53.170;18.160;2024-01-30T08:53:52;102696.19;;;2.54;100.00
81299;BME280;70766;53.170;18.160;2024-01-30T08:56:21;102696.20;;;2.77;100.00
81299;BME280;70766;53.170;18.160;2024-01-30T08:58:49;102694.47;;;3.03;100.00
81299;BME280;70766;53.170;18.160;2024-01-30T09:01:18;102692.29;;;3.23;100.00
81299;BME280;70766;53.170;18.160;2024-01-30T09:03:46;102687.50;;;3.37;100.00
81299;BME280;70766;53.170;18.160;2024-01-30T09:06:15;102686.48;;;3.47;100.00
81299;BME280;70766;53.170;18.160;2024-01-30T09:08:43;102685.73;;;3.55;100.00
81299;BME280;70766;53.170;18.160;2024-01-30T09:11:15;102684.36;;;3.71;100.00
81299;BME280;70766;53.170;18.160;2024-01-30T09:13:43;102680.48;;;3.82;100.00
81299;BME280;70766;53.170;18.160;2024-01-30T09:16:11;102674.60;;;3.87;100.00
81299;BME280;70766;53.170;18.160;2024-01-30T09:18:39;102675.32;;;3.87;99.96
81299;BME280;70766;53.170;18.160;2024-01-30T09:21:09;102672.27;;;3.85;99.93
81299;BME280;70766;53.170;18.160;2024-01-30T09:23:37;102671.52;;;3.88;99.18
81299;BME280;70766;53.170;18.160;2024-01-30T09:26:06;102668.87;;;3.93;99.29
81299;BME280;70766;53.170;18.160;2024-01-30T09:28:34;102673.25;;;4.00;98.29
81299;BME280;70766;53.170;18.160;2024-01-30T09:31:03;102673.79;;;4.10;97.21
81299;BME280;70766;53.170;18.160;2024-01-30T09:33:31;102669.21;;;4.19;95.16
81299;BME280;70766;53.170;18.160;2024-01-30T09:35:59;102659.90;;;4.39;97.47
81299;BME280;70766;53.170;18.160;2024-01-30T09:38:27;102661.79;;;4.58;96.64
81299;BME280;70766;53.170;18.160;2024-01-30T09:40:57;102662.80;;;4.75;95.97
81299;BME280;70766;53.170;18.160;2024-01-30T09:43:32;102663.48;;;4.91;93.95
81299;BME280;70766;53.170;18.160;2024-01-30T09:46:03;102654.78;;;5.17;94.78
81299;BME280;70766;53.170;18.160;2024-01-30T09:48:32;102658.71;;;5.44;92.01
81299;BME280;70766;53.170;18.160;2024-01-30T09:51:02;102651.98;;;5.68;92.50
81299;BME280;70766;53.170;18.160;2024-01-30T09:53:30;102650.08;;;5.92;94.98
81299;BME280;70766;53.170;18.160;2024-01-30T09:56:00;102650.18;;;6.12;91.10
81299;BME280;70766;53.170;18.160;2024-01-30T09:58:29;102646.70;;;6.34;93.58
81299;BME280;70766;53.170;18.160;2024-01-30T10:00:57;102642.68;;;6.55;90.84
81299;BME280;70766;53.170;18.160;2024-01-30T10:03:26;102639.95;;;6.81;91.13
81299;BME280;70766;53.170;18.160;2024-01-30T10:05:55;102636.76;;;7.14;88.55
81299;BME280;70766;53.170;18.160;2024-01-30T10:08:24;102634.87;;;7.42;89.67
81299;BME280;70766;53.170;18.160;2024-01-30T10:10:54;102628.59;;;7.56;84.34
81299;BME280;70766;53.170;18.160;2024-01-30T10:13:22;102627.30;;;7.57;84.15
81299;BME280;70766;53.170;18.160;2024-01-30T10:15:50;102622.06;;;7.61;84.87
81299;BME280;70766;53.170;18.160;2024-01-30T10:18:22;102621.65;;;7.65;82.51
81299;BME280;70766;53.170;18.160;2024-01-30T10:20:51;102617.13;;;7.64;80.82
81299;BME280;70766;53.170;18.160;2024-01-30T10:23:19;102615.41;;;7.66;80.28
81299;BME280;70766;53.170;18.160;2024-01-30T10:25:47;102612.02;;;7.73;80.31
81299;BME280;70766;53.170;18.160;2024-01-30T10:28:16;102609.52;;;7.83;80.96
81299;BME280;70766;53.170;18.160;2024-01-30T10:30:44;102606.05;;;7.94;81.53
81299;BME280;70766;53.170;18.160;2024-01-30T10:33:12;102605.25;;;8.03;78.96
81299;BME280;70766;53.170;18.160;2024-01-30T10:35:45;102602.09;;;8.10;78.54
81299;BME280;70766;53.170;18.160;2024-01-30T10:38:14;102600.48;;;8.25;78.10
81299;BME280;70766;53.170;18.160;2024-01-30T10:40:44;102601.45;;;8.07;73.79
81299;BME280;70766;53.170;18.160;2024-01-30T10:43:15;102602.42;;;7.94;74.03
81299;BME280;70766;53.170;18.160;2024-01-30T10:45:44;102599.90;;;7.93;75.49
81299;BME280;70766;53.170;18.160;2024-01-30T10:48:18;102597.63;;;8.04;75.60
81299;BME280;70766;53.170;18.160;2024-01-30T10:50:51;102597.49;;;8.07;72.72
81299;BME280;70766;53.170;18.160;2024-01-30T10:53:28;102595.80;;;8.11;74.78
81299;BME280;70766;53.170;18.160;2024-01-30T10:55:59;102594.65;;;8.20;73.55
81299;BME280;70766;53.170;18.160;2024-01-30T10:58:28;102593.52;;;8.24;72.82
81299;BME280;70766;53.170;18.160;2024-01-30T11:00:57;102591.20;;;8.38;73.76
81299;BME280;70766;53.170;18.160;2024-01-30T11:03:27;102591.58;;;8.61;71.89
81299;BME280;70766;53.170;18.160;2024-01-30T11:05:59;102588.69;;;8.87;73.14
81299;BME280;70766;53.170;18.160;2024-01-30T11:08:28;102586.70;;;9.09;68.89
81299;BME280;70766;53.170;18.160;2024-01-30T11:10:59;102579.78;;;9.06;66.61
81299;BME280;70766;53.170;18.160;2024-01-30T11:13:29;102580.05;;;9.05;68.22
81299;BME280;70766;53.170;18.160;2024-01-30T11:16:02;102577.54;;;9.08;67.45
81299;BME280;70766;53.170;18.160;2024-01-30T11:18:32;102575.15;;;9.23;68.50
81299;BME280;70766;53.170;18.160;2024-01-30T11:21:00;102575.52;;;9.26;67.88
81299;BME280;70766;53.170;18.160;2024-01-30T11:23:33;102570.93;;;9.12;66.74
81299;BME280;70766;53.170;18.160;2024-01-30T11:26:03;102566.47;;;9.02;64.73
81299;BME280;70766;53.170;18.160;2024-01-30T11:28:33;102561.68;;;9.00;66.79
81299;BME280;70766;53.170;18.160;2024-01-30T11:31:05;102559.66;;;9.00;66.07
81299;BME280;70766;53.170;18.160;2024-01-30T11:33:33;102555.67;;;9.04;66.68
81299;BME280;70766;53.170;18.160;2024-01-30T11:36:02;102553.59;;;8.94;64.95
81299;BME280;70766;53.170;18.160;2024-01-30T11:38:30;102552.02;;;8.96;66.49
81299;BME280;70766;53.170;18.160;2024-01-30T11:41:00;102552.69;;;9.09;66.75
81299;BME280;70766;53.170;18.160;2024-01-30T11:43:28;102552.36;;;9.21;66.04
81299;BME280;70766;53.170;18.160;2024-01-30T11:45:57;102551.31;;;9.22;65.05
81299;BME280;70766;53.170;18.160;2024-01-30T11:48:26;102546.63;;;9.18;63.71
81299;BME280;70766;53.170;18.160;2024-01-30T11:50:54;102547.11;;;9.23;65.30
81299;BME280;70766;53.170;18.160;2024-01-30T11:53:22;102541.52;;;9.03;62.16
81299;BME280;70766;53.170;18.160;2024-01-30T11:55:51;102544.37;;;8.89;62.72
81299;BME280;70766;53.170;18.160;2024-01-30T11:58:19;102535.55;;;8.77;63.20
81299;BME280;70766;53.170;18.160;2024-01-30T12:00:55;102531.41;;;8.59;62.10
81299;BME280;70766;53.170;18.160;2024-01-30T12:03:24;102527.58;;;8.47;64.61
81299;BME280;70766;53.170;18.160;2024-01-30T12:05:57;102530.96;;;8.52;63.77
81299;BME280;70766;53.170;18.160;2024-01-30T12:08:27;102528.08;;;8.59;63.18
81299;BME280;70766;53.170;18.160;2024-01-30T12:11:02;102525.79;;;8.68;62.59
81299;BME280;70766;53.170;18.160;2024-01-30T12:14:00;102517.73;;;8.85;62.90
81299;BME280;70766;53.170;18.160;2024-01-30T12:16:30;102516.68;;;8.89;62.30
81299;BME280;70766;53.170;18.160;2024-01-30T12:19:00;102511.46;;;9.04;62.75
81299;BME280;70766;53.170;18.160;2024-01-30T12:21:38;102510.70;;;9.09;61.73
81299;BME280;70766;53.170;18.160;2024-01-30T12:24:10;102508.25;;;9.22;63.19
81299;BME280;70766;53.170;18.160;2024-01-30T12:26:43;102504.16;;;9.28;62.28
81299;BME280;70766;53.170;18.160;2024-01-30T12:29:11;102501.25;;;9.21;61.00
81299;BME280;70766;53.170;18.160;2024-01-30T12:31:43;102498.08;;;9.10;59.96
81299;BME280;70766;53.170;18.160;2024-01-30T12:34:14;102491.98;;;9.01;59.89
81299;BME280;70766;53.170;18.160;2024-01-30T12:36:48;102495.67;;;8.98;61.03
81299;BME280;70766;53.170;18.160;2024-01-30T12:39:17;102490.91;;;9.10;61.21
81299;BME280;70766;53.170;18.160;2024-01-30T12:41:47;102488.52;;;9.17;61.63
81299;BME280;70766;53.170;18.160;2024-01-30T12:44:17;102482.91;;;9.17;60.62